createdAt,value
2019-04-14T00:01:10.848Z,90.50
2019-04-14T00:03:43.302Z,90.60
2019-04-14T00:06:13.766Z,90.60
2019-04-14T00:08:44.106Z,90.50
2019-04-14T00:11:14.771Z,90.60
2019-04-14T00:13:45.653Z,90.70
2019-04-14T00:16:16.370Z,90.60
2019-04-14T00:18:47.031Z,90.60
2019-04-14T00:21:19.382Z,90.60
2019-04-14T00:23:50.150Z,90.50
2019-04-14T00:26:46.697Z,90.40
2019-04-14T00:29:17.596Z,90.40
2019-04-14T00:31:50.674Z,90.40
2019-04-14T00:34:24.636Z,90.30
2019-04-14T00:37:05.655Z,90.40
2019-04-14T00:39:37.915Z,90.50
2019-04-14T00:42:10.216Z,90.50
2019-04-14T00:45:02.839Z,90.70
2019-04-14T00:47:49.760Z,90.70
2019-04-14T00:50:10.948Z,90.70
2019-04-14T00:52:41.543Z,90.80
2019-04-14T00:55:11.913Z,90.80
2019-04-14T00:57:42.261Z,91.10
2019-04-14T01:00:16.942Z,91.10
2019-04-14T01:02:45.103Z,91.00
2019-04-14T01:05:17.444Z,91.20
2019-04-14T01:07:48.060Z,91.30
2019-04-14T01:10:19.222Z,91.20
2019-04-14T01:12:49.699Z,91.30
2019-04-14T01:15:20.140Z,91.30
2019-04-14T01:17:50.660Z,91.40
2019-04-14T01:20:21.231Z,91.30
2019-04-14T01:22:51.517Z,91.30
2019-04-14T01:25:21.851Z,91.30
2019-04-14T01:27:52.195Z,91.40
2019-04-14T01:30:22.531Z,91.40
2019-04-14T01:32:52.876Z,91.40
2019-04-14T01:35:24.921Z,91.50
2019-04-14T01:37:55.313Z,91.60
2019-04-14T01:40:25.645Z,91.60
2019-04-14T01:42:57.223Z,91.60
2019-04-14T01:45:27.610Z,91.70
2019-04-14T01:47:57.945Z,92.00
2019-04-14T01:50:52.215Z,91.90
2019-04-14T01:53:30.134Z,91.80
2019-04-14T01:56:05.642Z,91.90
2019-04-14T01:58:40.408Z,91.90
2019-04-14T02:01:15.554Z,92.00
2019-04-14T02:03:45.897Z,92.10
2019-04-14T02:06:16.230Z,92.00
2019-04-14T02:08:47.951Z,92.00
2019-04-14T02:11:20.483Z,91.90
2019-04-14T02:13:50.976Z,91.90
2019-04-14T02:16:29.283Z,91.90
2019-04-14T02:18:54.959Z,91.90
2019-04-14T02:21:25.979Z,92.10
2019-04-14T02:23:56.513Z,92.20
2019-04-14T02:26:26.930Z,92.40
2019-04-14T02:28:57.261Z,92.60
2019-04-14T02:31:53.015Z,92.30
2019-04-14T02:34:34.567Z,92.30
2019-04-14T02:42:34.300Z,92.30
2019-04-14T02:47:48.975Z,92.20
2019-04-14T02:49:57.715Z,92.30
2019-04-14T03:00:11.308Z,92.40
2019-04-14T03:02:44.160Z,92.40
2019-04-14T03:05:13.265Z,92.30
2019-04-14T03:07:46.237Z,92.30
2019-04-14T03:10:17.899Z,92.60
2019-04-14T03:12:48.760Z,92.40
2019-04-14T03:18:20.445Z,92.30
2019-04-14T03:23:24.925Z,92.20
2019-04-14T03:25:46.940Z,92.40
2019-04-14T03:28:30.539Z,92.10
2019-04-14T03:34:11.120Z,92.10
2019-04-14T03:38:36.917Z,92.00
2019-04-14T03:41:17.272Z,92.10
2019-04-14T03:43:39.347Z,92.10
2019-04-14T03:46:19.394Z,92.10
2019-04-14T03:51:26.369Z,92.20
2019-04-14T03:53:47.274Z,92.20
2019-04-14T03:56:06.899Z,92.30
2019-04-14T03:58:33.619Z,92.30
2019-04-14T04:01:04.086Z,92.30
2019-04-14T04:03:34.657Z,92.20
2019-04-14T04:06:07.575Z,92.20
2019-04-14T04:08:37.998Z,92.20
2019-04-14T04:11:28.015Z,92.40
2019-04-14T04:13:58.522Z,92.50
2019-04-14T04:16:46.650Z,92.50
2019-04-14T04:19:19.739Z,92.40
2019-04-14T04:21:53.046Z,92.40
2019-04-14T04:24:41.678Z,92.40
2019-04-14T04:27:20.060Z,92.50
2019-04-14T04:30:08.069Z,92.40
2019-04-14T04:32:49.421Z,92.30
2019-04-14T04:35:39.746Z,92.10
2019-04-14T04:38:11.906Z,91.90
2019-04-14T04:40:42.257Z,92.00
2019-04-14T04:43:12.846Z,92.00
2019-04-14T04:45:43.463Z,92.00
2019-04-14T04:48:26.490Z,91.90
2019-04-14T04:50:56.825Z,92.00
2019-04-14T04:53:27.164Z,92.00
2019-04-14T04:55:57.518Z,92.00
2019-04-14T04:58:28.395Z,92.00
2019-04-14T05:00:59.599Z,92.00
2019-04-14T05:03:42.874Z,92.00
2019-04-14T05:06:48.340Z,92.10
2019-04-14T05:09:27.508Z,92.20
2019-04-14T05:12:15.842Z,92.10
2019-04-14T05:14:57.063Z,92.00
2019-04-14T05:17:38.868Z,92.10
2019-04-14T05:20:11.398Z,92.10
2019-04-14T05:22:41.973Z,92.10
2019-04-14T05:25:14.534Z,92.20
2019-04-14T05:27:45.238Z,92.30
2019-04-14T05:30:15.625Z,92.30
2019-04-14T05:32:47.968Z,92.20
2019-04-14T05:35:18.488Z,92.20
2019-04-14T05:37:48.808Z,92.20
2019-04-14T05:40:19.159Z,92.20
2019-04-14T05:42:49.499Z,92.20
2019-04-14T05:45:19.938Z,92.10
2019-04-14T05:47:50.259Z,92.10
2019-04-14T05:50:20.594Z,92.10
2019-04-14T05:52:51.480Z,92.00
2019-04-14T05:55:22.063Z,92.00
2019-04-14T05:57:52.583Z,91.70
2019-04-14T06:00:36.352Z,91.70
2019-04-14T06:03:06.679Z,91.70
2019-04-14T06:05:38.199Z,91.60
2019-04-14T06:08:08.621Z,91.60
2019-04-14T06:10:38.953Z,91.30
2019-04-14T06:13:11.700Z,91.30
2019-04-14T06:15:41.345Z,91.00
2019-04-14T06:18:11.689Z,91.00
2019-04-14T06:20:42.029Z,91.20
2019-04-14T06:23:12.375Z,90.60
2019-04-14T06:25:42.711Z,90.80
2019-04-14T06:28:32.563Z,90.50
2019-04-14T06:31:10.981Z,90.60
2019-04-14T06:33:49.120Z,90.60
2019-04-14T06:36:37.590Z,90.60
2019-04-14T06:39:13.158Z,90.60
2019-04-14T06:41:43.499Z,90.50
2019-04-14T06:44:13.837Z,90.70
2019-04-14T06:46:44.189Z,90.90
2019-04-14T06:49:14.518Z,90.80
2019-04-14T06:51:44.864Z,91.00
2019-04-14T06:54:15.208Z,90.30
2019-04-14T06:56:45.540Z,90.30
2019-04-14T06:59:15.879Z,90.00
2019-04-14T07:01:46.226Z,89.90
2019-04-14T07:04:16.561Z,89.50
2019-04-14T07:06:46.920Z,90.00
2019-04-14T07:09:17.328Z,89.60
2019-04-14T07:11:47.661Z,89.40
2019-04-14T07:14:18.002Z,89.10
2019-04-14T07:16:51.214Z,89.20
2019-04-14T07:19:20.386Z,87.90
2019-04-14T07:21:50.742Z,88.40
2019-04-14T07:24:21.081Z,87.10
2019-04-14T07:26:51.417Z,86.10
2019-04-14T07:29:22.429Z,86.70
2019-04-14T07:31:54.401Z,86.30
2019-04-14T07:34:36.564Z,85.10
2019-04-14T07:37:23.518Z,85.30
2019-04-14T07:39:55.520Z,85.10
2019-04-14T07:42:33.406Z,82.60
2019-04-14T07:45:08.334Z,82.00
2019-04-14T07:47:40.413Z,78.40
2019-04-14T07:50:30.600Z,77.80
2019-04-14T07:53:18.914Z,74.80
2019-04-14T07:55:50.908Z,75.30
2019-04-14T07:58:22.907Z,74.70
2019-04-14T08:00:55.236Z,75.60
2019-04-14T08:03:40.550Z,75.70
2019-04-14T08:06:11.193Z,71.00
2019-04-14T08:08:41.535Z,71.70
2019-04-14T08:11:12.560Z,71.70
2019-04-14T08:13:42.902Z,71.70
2019-04-14T08:16:13.236Z,72.00
2019-04-14T08:18:43.582Z,72.50
2019-04-14T08:21:13.925Z,72.00
2019-04-14T08:23:44.282Z,71.00
2019-04-14T08:26:14.638Z,69.60
2019-04-14T08:28:45.010Z,69.10
2019-04-14T08:31:15.403Z,68.00
2019-04-14T08:47:26.239Z,59.70
2019-04-14T08:50:01.334Z,56.60
2019-04-14T08:52:36.439Z,58.40
2019-04-14T08:55:15.247Z,58.70
2019-04-14T08:57:56.431Z,54.60
2019-04-14T09:00:31.023Z,55.70
2019-04-14T09:03:05.694Z,57.10
2019-04-14T09:05:43.301Z,56.00
2019-04-14T09:08:17.976Z,56.10
2019-04-14T09:10:58.778Z,52.60
2019-04-14T09:13:29.120Z,52.60
2019-04-14T09:15:59.490Z,50.60
2019-04-14T09:18:29.859Z,50.60
2019-04-14T09:21:00.193Z,53.00
2019-04-14T09:23:31.608Z,49.80
2019-04-14T09:26:01.950Z,51.70
2019-04-14T09:28:32.307Z,51.70
2019-04-14T09:45:02.191Z,48.50
2019-04-14T09:47:32.609Z,47.40
2019-04-14T09:50:02.953Z,46.30
2019-04-14T09:52:33.310Z,49.60
2019-04-14T09:55:04.029Z,45.50
2019-04-14T09:57:34.380Z,44.80
2019-04-14T10:00:07.404Z,45.70
2019-04-14T10:02:37.840Z,47.90
2019-04-14T10:05:08.588Z,45.50
2019-04-14T10:07:38.956Z,43.50
2019-04-14T10:10:09.440Z,42.70
2019-04-14T10:12:39.793Z,43.80
2019-04-14T10:15:10.308Z,45.20
2019-04-14T10:17:40.655Z,45.20
2019-04-14T10:20:11.076Z,46.30
2019-04-14T10:22:41.454Z,47.30
2019-04-14T10:25:11.801Z,46.90
2019-04-14T10:27:42.144Z,46.50
2019-04-14T10:30:12.627Z,45.20
2019-04-14T10:32:42.971Z,45.10
2019-04-14T10:35:13.320Z,45.20
2019-04-14T10:37:43.719Z,42.70
2019-04-14T10:40:14.082Z,42.20
2019-04-14T10:42:44.448Z,41.20
2019-04-14T10:45:14.950Z,40.70
2019-04-14T10:47:45.389Z,38.80
2019-04-14T10:50:15.740Z,38.60
2019-04-14T10:52:46.493Z,36.70
2019-04-14T10:55:16.854Z,37.90
2019-04-14T10:57:49.265Z,38.20
2019-04-14T11:00:19.676Z,38.60
2019-04-14T11:02:50.031Z,38.90
2019-04-14T11:05:20.373Z,37.80
2019-04-14T11:07:50.726Z,38.60
2019-04-14T11:10:21.071Z,38.80
2019-04-14T11:12:51.435Z,39.00
2019-04-14T11:15:21.774Z,38.60
2019-04-14T11:17:52.145Z,38.60
2019-04-14T11:20:22.492Z,38.70
2019-04-14T11:23:02.842Z,39.40
2019-04-14T11:25:24.895Z,39.40
2019-04-14T11:27:55.254Z,39.70
2019-04-14T11:30:25.730Z,38.40
2019-04-14T11:32:57.656Z,38.10
2019-04-14T11:35:29.647Z,36.80
2019-04-14T11:38:10.350Z,36.60
2019-04-14T11:40:45.289Z,37.30
2019-04-14T11:43:15.650Z,37.10
2019-04-14T11:45:45.980Z,37.80
2019-04-14T11:48:16.338Z,38.60
2019-04-14T11:50:46.667Z,38.90
2019-04-14T11:53:17.045Z,39.70
2019-04-14T11:55:47.452Z,40.50
2019-04-14T11:58:17.808Z,40.40
2019-04-14T12:01:06.132Z,38.60
2019-04-14T12:03:50.370Z,39.50
2019-04-14T12:06:28.279Z,38.90
2019-04-14T12:09:16.391Z,39.00
2019-04-14T12:11:46.743Z,39.40
2019-04-14T12:14:17.097Z,39.70
2019-04-14T12:16:47.441Z,37.00
2019-04-14T12:19:17.787Z,37.40
2019-04-14T12:21:48.140Z,37.10
2019-04-14T12:24:18.479Z,37.30
2019-04-14T12:26:49.867Z,37.40
2019-04-14T12:29:21.479Z,37.80
2019-04-14T12:31:53.010Z,38.00
2019-04-14T12:34:23.445Z,37.70
2019-04-14T12:36:53.872Z,37.00
2019-04-14T12:39:25.302Z,37.80
2019-04-14T12:42:01.012Z,38.50
2019-04-14T12:44:49.588Z,38.10
2019-04-14T12:47:40.285Z,37.50
2019-04-14T12:50:23.223Z,38.40
2019-04-14T12:52:53.571Z,39.40
2019-04-14T12:55:23.930Z,40.40
2019-04-14T12:57:58.637Z,39.30
2019-04-14T13:00:36.395Z,39.30
2019-04-14T13:03:06.746Z,39.50
2019-04-14T13:05:37.165Z,39.70
2019-04-14T13:08:15.235Z,39.70
2019-04-14T13:10:45.748Z,40.10
2019-04-14T13:13:16.176Z,39.80
2019-04-14T13:15:46.528Z,37.60
2019-04-14T13:18:16.888Z,37.50
2019-04-14T13:20:47.225Z,37.40
2019-04-14T13:23:17.602Z,37.60
2019-04-14T13:25:47.954Z,38.30
2019-04-14T13:28:19.382Z,38.10
2019-04-14T13:30:51.021Z,37.90
2019-04-14T13:33:22.020Z,37.20
2019-04-14T13:35:52.368Z,37.50
2019-04-14T13:38:22.712Z,38.40
2019-04-14T13:40:53.058Z,37.90
2019-04-14T13:43:23.431Z,36.40
2019-04-14T13:45:53.766Z,36.70
2019-04-14T13:48:24.134Z,36.70
2019-04-14T13:50:54.482Z,37.60
2019-04-14T13:53:24.817Z,37.60
2019-04-14T13:55:55.174Z,37.40
2019-04-14T13:58:25.517Z,37.60
2019-04-14T14:00:57.377Z,38.30
2019-04-14T14:03:27.729Z,38.10
2019-04-14T14:05:58.080Z,38.40
2019-04-14T14:08:28.443Z,38.50
2019-04-14T14:11:08.193Z,38.80
2019-04-14T14:13:44.509Z,39.30
2019-04-14T14:16:31.666Z,37.90
2019-04-14T14:19:03.672Z,38.20
2019-04-14T14:21:38.345Z,38.20
2019-04-14T14:24:16.055Z,38.70
2019-04-14T14:26:48.043Z,37.80
2019-04-14T14:29:19.384Z,37.00
2019-04-14T14:31:50.188Z,37.20
2019-04-14T14:34:20.534Z,37.00
2019-04-14T14:36:51.024Z,37.40
2019-04-14T14:39:21.882Z,36.50
2019-04-14T14:41:52.220Z,37.50
2019-04-14T14:44:24.228Z,37.90
2019-04-14T14:47:02.181Z,38.10
2019-04-14T14:49:34.167Z,38.20
2019-04-14T14:54:58.403Z,38.10
2019-04-14T14:57:28.745Z,38.40
2019-04-14T14:59:59.100Z,37.10
2019-04-14T15:02:29.496Z,37.50
2019-04-14T15:04:59.829Z,37.90
2019-04-14T15:07:30.172Z,37.90
2019-04-14T15:10:00.522Z,37.10
2019-04-14T15:12:30.862Z,36.90
2019-04-14T15:15:01.218Z,37.50
2019-04-14T15:17:31.559Z,37.90
2019-04-14T15:20:01.955Z,37.80
2019-04-14T15:22:32.276Z,37.60
2019-04-14T15:25:02.688Z,37.20
2019-04-14T15:27:33.105Z,36.60
2019-04-14T15:30:05.571Z,36.80
2019-04-14T15:32:35.921Z,37.00
2019-04-14T15:35:07.595Z,37.40
2019-04-14T15:37:37.938Z,37.60
2019-04-14T15:40:08.727Z,37.50
2019-04-14T15:42:39.077Z,37.50
2019-04-14T15:45:12.470Z,37.70
2019-04-14T15:47:42.806Z,37.90
2019-04-14T15:50:15.041Z,36.40
2019-04-14T15:52:45.413Z,36.90
2019-04-14T15:55:17.416Z,36.90
2019-04-14T15:57:55.695Z,37.90
2019-04-14T16:00:36.516Z,38.20
2019-04-14T16:03:08.520Z,37.70
2019-04-14T16:05:43.235Z,38.00
2019-04-14T16:08:30.293Z,38.60
2019-04-14T16:11:03.288Z,38.40
2019-04-14T16:13:35.280Z,38.40
2019-04-14T16:31:19.785Z,37.80
2019-04-14T16:34:25.217Z,37.60
2019-04-14T16:36:56.304Z,38.70
2019-04-14T16:39:26.718Z,39.20
2019-04-14T16:41:57.083Z,39.90
2019-04-14T16:44:27.423Z,40.00
2019-04-14T16:46:57.807Z,39.80
2019-04-14T16:49:28.141Z,39.60
2019-04-14T16:52:00.131Z,39.90
2019-04-14T16:54:32.129Z,40.10
2019-04-14T16:57:20.248Z,40.30
2019-04-14T16:59:50.586Z,39.30
2019-04-14T17:02:20.955Z,39.40
2019-04-14T17:04:51.379Z,39.80
2019-04-14T17:07:21.723Z,39.90
2019-04-14T17:09:52.094Z,40.20
2019-04-14T17:12:22.426Z,40.60
2019-04-14T17:14:57.455Z,40.70
2019-04-14T17:17:37.376Z,40.30
2019-04-14T17:20:12.431Z,40.50
2019-04-14T17:22:47.366Z,41.00
2019-04-14T17:25:20.901Z,41.10
2019-04-14T17:54:29.262Z,41.60
2019-04-14T17:57:01.188Z,41.80
2019-04-14T17:59:33.173Z,42.10
2019-04-14T18:02:20.257Z,42.40
2019-04-14T18:04:58.374Z,42.90
2019-04-14T18:07:30.359Z,43.30
2019-04-14T18:10:05.263Z,43.80
2019-04-14T18:12:53.653Z,45.10
2019-04-14T18:30:28.284Z,46.30
2019-04-14T18:33:00.273Z,46.30
2019-04-14T18:35:34.948Z,46.50
2019-04-14T18:38:09.969Z,46.90
2019-04-14T18:40:44.710Z,47.00
2019-04-14T18:43:45.567Z,47.20
2019-04-14T18:46:23.246Z,47.90
2019-04-14T18:48:58.014Z,48.90
2019-04-14T18:51:30.999Z,50.00
2019-04-14T18:54:03.151Z,49.90
2019-04-14T18:56:44.238Z,50.50
2019-04-14T18:59:25.511Z,52.10
2019-04-14T19:01:57.243Z,51.90
2019-04-14T19:04:28.514Z,52.20
2019-04-14T19:06:58.946Z,52.40
2019-04-14T19:09:30.259Z,53.10
2019-04-14T19:12:08.072Z,54.10
2019-04-14T19:14:40.952Z,55.20
2019-04-14T19:17:12.940Z,54.80
2019-04-14T19:19:44.980Z,55.90
2019-04-14T19:22:15.280Z,54.90
2019-04-14T19:24:45.634Z,55.00
2019-04-14T19:27:15.987Z,56.90
2019-04-14T19:29:46.352Z,56.00
2019-04-14T19:32:17.008Z,56.70
2019-04-14T19:34:47.349Z,57.00
2019-04-14T19:37:17.746Z,56.50
2019-04-14T19:39:48.503Z,56.60
2019-04-14T19:42:18.864Z,56.80
2019-04-14T19:44:49.195Z,56.70
2019-04-14T19:47:19.537Z,56.70
2019-04-14T19:49:49.881Z,57.20
2019-04-14T19:52:20.225Z,57.40
2019-04-14T19:54:50.574Z,57.50
2019-04-14T19:57:20.912Z,57.00
2019-04-14T19:59:51.290Z,57.40
2019-04-14T20:02:21.625Z,57.70
2019-04-14T20:04:52.926Z,57.40
2019-04-14T20:07:31.097Z,57.80
2019-04-14T20:10:01.534Z,58.00
2019-04-14T20:12:31.866Z,57.90
2019-04-14T20:15:02.281Z,58.00
2019-04-14T20:17:37.442Z,58.10
2019-04-14T20:20:22.294Z,58.70
2019-04-14T20:23:06.303Z,58.20
2019-04-14T20:25:54.595Z,58.20
2019-04-14T20:28:42.169Z,58.40
2019-04-14T20:31:26.345Z,59.00
2019-04-14T20:33:56.711Z,58.70
2019-04-14T20:36:27.077Z,59.20
2019-04-14T20:38:57.425Z,59.30
2019-04-14T20:41:27.758Z,59.70
2019-04-14T20:43:58.107Z,59.60
2019-04-14T20:46:28.457Z,60.10
2019-04-14T20:48:58.882Z,59.90
2019-04-14T20:51:29.230Z,59.80
2019-04-14T20:53:59.700Z,59.70
2019-04-14T20:56:30.031Z,60.10
2019-04-14T20:59:00.382Z,60.50
2019-04-14T21:01:32.421Z,60.60
2019-04-14T21:04:04.408Z,61.10
2019-04-14T21:06:36.856Z,61.60
2019-04-14T21:09:09.176Z,62.40
2019-04-14T21:11:50.334Z,62.50
2019-04-14T21:14:25.024Z,63.40
2019-04-14T21:19:49.414Z,63.70
2019-04-14T21:22:24.091Z,64.80
2019-04-14T21:25:12.432Z,64.00
2019-04-14T21:27:50.332Z,63.80
2019-04-14T21:30:25.122Z,65.20
2019-04-14T21:33:03.267Z,65.50
2019-04-14T21:35:47.341Z,65.50
2019-04-14T21:38:19.339Z,65.50
2019-04-14T21:40:53.975Z,66.00
2019-04-14T21:43:24.315Z,66.80
2019-04-14T21:45:54.658Z,66.90
2019-04-14T21:48:25.001Z,67.30
2019-04-14T21:50:55.342Z,67.70
2019-04-14T21:53:25.690Z,67.60
2019-04-14T21:55:56.029Z,67.10
2019-04-14T21:58:31.194Z,67.10
2019-04-14T22:01:36.146Z,68.00
2019-04-14T22:04:23.136Z,68.00
2019-04-14T22:07:03.697Z,68.20
2019-04-14T22:09:36.122Z,68.50
2019-04-14T22:12:07.602Z,68.60
2019-04-14T22:14:37.945Z,68.90
2019-04-14T22:17:08.296Z,69.30
2019-04-14T22:19:38.649Z,68.90
2019-04-14T22:22:09.050Z,69.40
2019-04-14T22:24:39.416Z,69.00
2019-04-14T22:27:09.764Z,69.10
2019-04-14T22:29:40.097Z,69.00
2019-04-14T22:32:10.448Z,68.90
2019-04-14T22:34:40.787Z,68.60
2019-04-14T22:37:11.127Z,68.30
2019-04-14T22:39:41.466Z,68.10
2019-04-14T22:42:11.828Z,68.20
2019-04-14T22:44:42.162Z,68.10
2019-04-14T22:47:12.512Z,68.00
2019-04-14T22:49:42.860Z,68.50
2019-04-14T22:52:13.230Z,68.80
2019-04-14T22:54:43.602Z,69.20
2019-04-14T22:57:13.944Z,69.30
2019-04-14T22:59:44.278Z,69.30
2019-04-14T23:02:16.263Z,69.20
2019-04-14T23:04:48.243Z,69.30
2019-04-14T23:07:38.651Z,69.20
2019-04-14T23:10:10.773Z,69.30
2019-04-14T23:12:51.697Z,69.30
2019-04-14T23:15:35.925Z,69.30
2019-04-14T23:18:13.827Z,69.40
2019-04-14T23:20:48.924Z,69.60
2019-04-14T23:23:20.922Z,69.70
2019-04-14T23:25:51.279Z,70.00
2019-04-14T23:28:21.699Z,70.20
2019-04-14T23:30:52.029Z,70.70
2019-04-14T23:33:22.398Z,70.70
2019-04-14T23:35:52.815Z,70.70
2019-04-14T23:38:23.148Z,71.10
2019-04-14T23:40:53.493Z,71.20
2019-04-14T23:43:23.835Z,71.40
2019-04-14T23:45:54.197Z,72.30
2019-04-14T23:48:24.588Z,73.00
2019-04-14T23:50:54.925Z,72.50
2019-04-14T23:53:25.268Z,72.60
2019-04-14T23:55:55.633Z,72.60
2019-04-14T23:58:25.969Z,73.20
